Etusivu
METAR-TAF:

METAR-TAF

Lentoasemat :

Lontoo-Heathrow, Englanti

Heathrow’n lentoasema

Leveyspiiri: 51-29N, Pituuspiiri: 000-27W, korkeus merenpinnasta: 24 m

Tämänhetkinen sää

Tämä raportti tehtiin 36 minuuttia sitten, kello 14.20 UTC
Tuuli 3 kn eri suunnista
Lämpötila 7°C
Kosteus 66%
Ilmanpaine 1012 hPa
Näkyvyys 10 km tai enemmän

METAR: EGLL 241420Z AUTO VRB03KT 9999 NCD 07/01 Q1012 NOSIG

Aika: 14:56 (14:56 UTC)

Sääennuste

Tämä raportti tehtiin 4 tuntia ja 1 minuuttia sitten, kello 10.55 UTC
Ennuste voimassa 24. päivästä klo 12 UTC - 25. päivään klo 18 UTC
Tuuli 5 kn luoteesta
Näkyvyys 10 km tai enemmän
Hajanaisia pilviä 3000 ft:n korkeudessa
Todennäköisyys 30% :
Ajoittain
25. päivästä klo 02 UTC - 25. päivään klo 08 UTC
Näkyvyys: 7000 m
Todennäköisyys 30% :
Ajoittain
25. päivästä klo 11 UTC - 25. päivään klo 16 UTC
Näkyvyys: 6000 m
vesikuuroja

TAF: EGLL 241055Z 2412/2518 32005KT 9999 SCT030 PROB30 TEMPO 2502/2508 7000 PROB30 TEMPO 2511/2516 6000 SHRA

Säähavainnot ja -ennusteet yli 4000 lentoasemalta (METAR- ja TAF-raportit).

Käytössä olevat sääasemat on merkitty karttaan keltaisilla ja punaisilla pisteillä.

Aseta hiiri pisteen päälle nähdäksesi sääaseman nimen.

Klikkaa sitten nähdäksesi säähavainnot ja -ennusteet.

Kartan vaihtaminen: klikkaa mustalla rastilla varustettuja vihreitä pisteitä, niin voit zoomata sisään; viivalla varustettua vihreää pistettä, niin voit zoomata ulos tai vihreitä nuolia, niin pääset viereisille kartoille.


METAR-TAF: